createdAt,value
2022-09-09T00:00:35.394Z,18.62
2022-09-09T00:01:34.903Z,18.64
2022-09-09T00:02:34.980Z,18.65
2022-09-09T00:03:35.524Z,18.67
2022-09-09T00:04:35.396Z,18.69
2022-09-09T00:05:35.886Z,18.70
2022-09-09T00:06:35.373Z,18.71
2022-09-09T00:07:33.897Z,18.73
2022-09-09T00:08:35.361Z,18.75
2022-09-09T00:09:33.907Z,18.76
2022-09-09T00:10:35.955Z,18.76
2022-09-09T00:11:33.849Z,18.79
2022-09-09T00:12:35.288Z,18.80
2022-09-09T00:13:34.775Z,18.81
2022-09-09T00:14:33.807Z,18.83
2022-09-09T00:15:35.789Z,18.83
2022-09-09T00:16:33.850Z,18.84
2022-09-09T00:17:34.731Z,18.85
2022-09-09T00:18:35.793Z,18.85
2022-09-09T00:19:34.741Z,18.85
2022-09-09T00:20:35.179Z,18.85
2022-09-09T00:21:35.669Z,18.85
2022-09-09T00:22:34.763Z,18.87
2022-09-09T00:23:35.158Z,18.88
2022-09-09T00:24:35.662Z,18.90
2022-09-09T00:25:33.701Z,18.90
2022-09-09T00:26:35.680Z,18.91
2022-09-09T00:27:34.823Z,18.92
2022-09-09T00:28:34.602Z,18.93
2022-09-09T00:29:35.508Z,18.97
2022-09-09T00:30:33.772Z,18.96
2022-09-09T00:31:34.556Z,18.97
2022-09-09T00:32:35.077Z,18.98
2022-09-09T00:33:33.643Z,18.99
2022-09-09T00:34:35.583Z,18.99
2022-09-09T00:35:35.565Z,19.01
2022-09-09T00:36:34.565Z,19.03
2022-09-09T00:37:33.582Z,19.04
2022-09-09T00:38:34.659Z,19.04
2022-09-09T00:39:33.578Z,19.04
2022-09-09T00:40:33.580Z,19.06
2022-09-09T00:41:33.537Z,19.06
2022-09-09T00:42:35.000Z,19.07
2022-09-09T00:43:33.520Z,19.07
2022-09-09T00:44:34.929Z,19.07
2022-09-09T00:45:34.900Z,19.07
2022-09-09T00:46:33.755Z,19.07
2022-09-09T00:47:33.467Z,19.07
2022-09-09T00:48:33.548Z,19.07
2022-09-09T00:49:34.389Z,19.06
2022-09-09T00:50:34.871Z,19.07
2022-09-09T00:51:34.839Z,19.06
2022-09-09T00:52:34.474Z,19.04
2022-09-09T00:53:33.428Z,19.04
2022-09-09T00:54:34.346Z,19.03
2022-09-09T00:55:34.833Z,19.03
2022-09-09T00:56:34.828Z,19.01
2022-09-09T00:57:33.363Z,19.00
2022-09-09T00:58:35.056Z,18.99
2022-09-09T00:59:33.334Z,18.98
2022-09-09T01:00:33.650Z,18.97
2022-09-09T01:01:34.820Z,18.96
2022-09-09T01:02:34.869Z,18.96
2022-09-09T01:03:34.220Z,18.95
2022-09-09T01:04:34.295Z,18.94
2022-09-09T01:05:33.283Z,18.93
2022-09-09T01:06:33.273Z,18.93
2022-09-09T01:07:33.281Z,18.93
2022-09-09T01:08:34.814Z,18.92
2022-09-09T01:09:33.227Z,18.91
2022-09-09T01:10:34.795Z,18.90
2022-09-09T01:11:34.644Z,18.90
2022-09-09T01:12:34.616Z,18.89
2022-09-09T01:13:34.219Z,18.89
2022-09-09T01:14:34.614Z,18.89
2022-09-09T01:15:34.085Z,18.88
2022-09-09T01:16:34.671Z,18.87
2022-09-09T01:17:34.107Z,18.87
2022-09-09T01:18:34.664Z,18.85
2022-09-09T01:19:34.557Z,18.84
2022-09-09T01:20:34.048Z,18.82
2022-09-09T01:21:34.547Z,18.80
2022-09-09T01:22:34.637Z,18.78
2022-09-09T01:23:34.509Z,18.76
2022-09-09T01:24:33.999Z,18.74
2022-09-09T01:25:33.066Z,18.73
2022-09-09T01:26:34.481Z,18.71
2022-09-09T01:27:34.479Z,18.69
2022-09-09T01:28:35.180Z,18.68
2022-09-09T01:29:34.447Z,18.66
2022-09-09T01:30:34.012Z,18.66
2022-09-09T01:31:34.419Z,18.65
2022-09-09T01:32:33.942Z,18.64
2022-09-09T01:33:32.952Z,18.63
2022-09-09T01:34:34.430Z,18.63
2022-09-09T01:35:32.942Z,18.63
2022-09-09T01:36:34.371Z,18.63
2022-09-09T01:37:34.354Z,18.63
2022-09-09T01:38:33.894Z,18.62
2022-09-09T01:39:34.406Z,18.63
2022-09-09T01:40:32.922Z,18.62
2022-09-09T01:41:32.884Z,18.62
2022-09-09T01:42:33.654Z,18.61
2022-09-09T01:43:34.312Z,18.60
2022-09-09T01:44:34.293Z,18.59
2022-09-09T01:45:33.896Z,18.57
2022-09-09T01:46:34.373Z,18.55
2022-09-09T01:47:32.825Z,18.53
2022-09-09T01:48:32.994Z,18.51
2022-09-09T01:49:34.235Z,18.48
2022-09-09T01:50:32.774Z,18.46
2022-09-09T01:51:34.225Z,18.43
2022-09-09T01:52:34.250Z,18.41
2022-09-09T01:53:34.148Z,18.38
2022-09-09T01:54:32.759Z,18.37
2022-09-09T01:55:34.178Z,18.33
2022-09-09T01:56:32.717Z,18.31
2022-09-09T01:57:33.688Z,18.30
2022-09-09T01:58:32.808Z,18.28
2022-09-09T01:59:34.150Z,18.26
2022-09-09T02:00:32.679Z,18.23
2022-09-09T02:01:32.688Z,18.22
2022-09-09T02:02:33.654Z,18.19
2022-09-09T02:03:33.622Z,18.17
2022-09-09T02:04:34.190Z,18.15
2022-09-09T02:05:34.049Z,18.11
2022-09-09T02:06:34.050Z,18.08
2022-09-09T02:07:32.591Z,18.06
2022-09-09T02:08:34.086Z,18.03
2022-09-09T02:09:34.012Z,18.01
2022-09-09T02:10:32.600Z,17.98
2022-09-09T02:11:32.542Z,17.96
2022-09-09T02:12:32.542Z,17.93
2022-09-09T02:13:32.531Z,17.90
2022-09-09T02:14:33.483Z,17.88
2022-09-09T02:15:32.503Z,17.85
2022-09-09T02:16:34.610Z,17.83
2022-09-09T02:17:32.478Z,17.82
2022-09-09T02:18:33.518Z,17.78
2022-09-09T02:19:32.464Z,17.76
2022-09-09T02:20:35.069Z,17.74
2022-09-09T02:21:33.874Z,17.71
2022-09-09T02:22:32.505Z,17.68
2022-09-09T02:23:33.864Z,17.65
2022-09-09T02:24:32.405Z,17.62
2022-09-09T02:25:32.420Z,17.61
2022-09-09T02:26:33.835Z,17.57
2022-09-09T02:27:33.827Z,17.54
2022-09-09T02:28:33.944Z,17.52
2022-09-09T02:29:33.796Z,17.51
2022-09-09T02:30:32.376Z,17.49
2022-09-09T02:31:33.787Z,17.47
2022-09-09T02:32:33.766Z,17.45
2022-09-09T02:33:33.260Z,17.44
2022-09-09T02:34:34.027Z,17.42
2022-09-09T02:35:33.720Z,17.41
2022-09-09T02:36:32.280Z,17.40
2022-09-09T02:37:33.219Z,17.39
2022-09-09T02:38:33.773Z,17.38
2022-09-09T02:39:33.722Z,17.38
2022-09-09T02:40:33.766Z,17.37
2022-09-09T02:41:32.217Z,17.38
2022-09-09T02:42:32.218Z,17.38
2022-09-09T02:43:33.128Z,17.39
2022-09-09T02:44:33.633Z,17.40
2022-09-09T02:45:33.645Z,17.42
2022-09-09T02:46:32.288Z,17.44
2022-09-09T02:47:33.101Z,17.45
2022-09-09T02:48:33.640Z,17.47
2022-09-09T02:49:33.571Z,17.47
2022-09-09T02:50:33.562Z,17.48
2022-09-09T02:51:32.903Z,17.49
2022-09-09T02:52:34.077Z,17.51
2022-09-09T02:53:33.543Z,17.52
2022-09-09T02:54:33.533Z,17.52
2022-09-09T02:55:32.073Z,17.53
2022-09-09T02:56:32.094Z,17.54
2022-09-09T02:57:32.052Z,17.56
2022-09-09T02:58:33.048Z,17.57
2022-09-09T02:59:33.496Z,17.57
2022-09-09T03:00:33.473Z,17.57
2022-09-09T03:01:33.494Z,17.58
2022-09-09T03:02:32.033Z,17.59
2022-09-09T03:03:32.916Z,17.60
2022-09-09T03:04:31.996Z,17.60
2022-09-09T03:05:33.396Z,17.61
2022-09-09T03:06:33.387Z,17.61
2022-09-09T03:07:32.885Z,17.62
2022-09-09T03:08:32.006Z,17.63
2022-09-09T03:09:31.916Z,17.64
2022-09-09T03:10:33.407Z,17.63
2022-09-09T03:11:32.856Z,17.64
2022-09-09T03:12:31.950Z,17.64
2022-09-09T03:13:32.068Z,17.64
2022-09-09T03:14:33.299Z,17.65
2022-09-09T03:15:31.858Z,17.65
2022-09-09T03:16:33.350Z,17.66
2022-09-09T03:17:33.269Z,17.67
2022-09-09T03:18:32.828Z,17.66
2022-09-09T03:19:33.240Z,17.66
2022-09-09T03:20:33.268Z,17.67
2022-09-09T03:21:33.228Z,17.67
2022-09-09T03:22:33.812Z,17.68
2022-09-09T03:23:32.715Z,17.70
2022-09-09T03:24:32.662Z,17.68
2022-09-09T03:25:33.682Z,17.68
2022-09-09T03:26:31.741Z,17.68
2022-09-09T03:27:32.671Z,17.69
2022-09-09T03:28:33.206Z,17.70
2022-09-09T03:29:32.643Z,17.70
2022-09-09T03:30:33.126Z,17.71
2022-09-09T03:31:32.555Z,17.71
2022-09-09T03:32:31.675Z,17.72
2022-09-09T03:33:31.657Z,17.71
2022-09-09T03:34:31.685Z,17.70
2022-09-09T03:35:33.096Z,17.70
2022-09-09T03:36:31.624Z,17.71
2022-09-09T03:37:31.622Z,17.70
2022-09-09T03:38:32.561Z,17.71
2022-09-09T03:39:32.549Z,17.71
2022-09-09T03:40:33.146Z,17.72
2022-09-09T03:41:32.975Z,17.72
2022-09-09T03:42:32.466Z,17.72
2022-09-09T03:43:32.956Z,17.72
2022-09-09T03:44:32.477Z,17.72
2022-09-09T03:45:32.989Z,17.73
2022-09-09T03:46:32.950Z,17.73
2022-09-09T03:47:32.427Z,17.72
2022-09-09T03:48:32.961Z,17.73
2022-09-09T03:49:31.717Z,17.73
2022-09-09T03:50:32.380Z,17.73
2022-09-09T03:51:32.378Z,17.74
2022-09-09T03:52:32.909Z,17.73
2022-09-09T03:53:31.432Z,17.74
2022-09-09T03:54:32.354Z,17.72
2022-09-09T03:55:31.430Z,17.72
2022-09-09T03:56:31.907Z,17.71
2022-09-09T03:57:32.300Z,17.71
2022-09-09T03:58:31.511Z,17.71
2022-09-09T03:59:31.362Z,17.70
2022-09-09T04:00:31.359Z,17.68
2022-09-09T04:01:32.340Z,17.67
2022-09-09T04:02:32.321Z,17.66
2022-09-09T04:03:32.252Z,17.64
2022-09-09T04:04:31.382Z,17.61
2022-09-09T04:05:31.290Z,17.59
2022-09-09T04:06:32.222Z,17.56
2022-09-09T04:07:32.212Z,17.54
2022-09-09T04:08:31.266Z,17.51
2022-09-09T04:09:32.172Z,17.48
2022-09-09T04:10:32.303Z,17.45
2022-09-09T04:11:31.224Z,17.43
2022-09-09T04:12:32.684Z,17.41
2022-09-09T04:13:32.125Z,17.38
2022-09-09T04:14:32.635Z,17.36
2022-09-09T04:15:31.182Z,17.33
2022-09-09T04:16:32.169Z,17.32
2022-09-09T04:17:31.168Z,17.31
2022-09-09T04:18:33.226Z,17.31
2022-09-09T04:19:32.597Z,17.29
2022-09-09T04:20:31.138Z,17.29
2022-09-09T04:21:32.566Z,17.28
2022-09-09T04:22:31.149Z,17.27
2022-09-09T04:23:31.108Z,17.27
2022-09-09T04:24:32.538Z,17.28
2022-09-09T04:25:32.018Z,17.27
2022-09-09T04:26:31.998Z,17.27
2022-09-09T04:27:31.995Z,17.27
2022-09-09T04:28:31.076Z,17.27
2022-09-09T04:29:32.492Z,17.27
2022-09-09T04:30:32.469Z,17.27
2022-09-09T04:31:32.009Z,17.28
2022-09-09T04:32:31.152Z,17.28
2022-09-09T04:33:31.930Z,17.28
2022-09-09T04:34:31.957Z,17.28
2022-09-09T04:35:32.421Z,17.28
2022-09-09T04:36:31.894Z,17.28
2022-09-09T04:37:31.873Z,17.27
2022-09-09T04:38:31.897Z,17.27
2022-09-09T04:39:31.891Z,17.26
2022-09-09T04:40:30.959Z,17.26
2022-09-09T04:41:30.925Z,17.26
2022-09-09T04:42:32.348Z,17.26
2022-09-09T04:43:32.354Z,17.25
2022-09-09T04:44:32.332Z,17.25
2022-09-09T04:45:31.804Z,17.25
2022-09-09T04:46:32.798Z,17.25
2022-09-09T04:47:30.850Z,17.24
2022-09-09T04:48:30.847Z,17.24
2022-09-09T04:49:32.243Z,17.23
2022-09-09T04:50:30.860Z,17.22
2022-09-09T04:51:31.705Z,17.22
2022-09-09T04:52:32.287Z,17.21
2022-09-09T04:53:30.852Z,17.20
2022-09-09T04:54:32.726Z,17.19
2022-09-09T04:55:31.685Z,17.19
2022-09-09T04:56:31.767Z,17.19
2022-09-09T04:57:30.744Z,17.18
2022-09-09T04:58:31.749Z,17.19
2022-09-09T04:59:30.717Z,17.20
2022-09-09T05:00:32.205Z,17.21
2022-09-09T05:01:32.109Z,17.22
2022-09-09T05:02:31.656Z,17.22
2022-09-09T05:03:31.848Z,17.23
2022-09-09T05:04:30.736Z,17.24
2022-09-09T05:05:30.700Z,17.25
2022-09-09T05:06:30.641Z,17.26
2022-09-09T05:07:32.051Z,17.25
2022-09-09T05:08:30.621Z,17.26
2022-09-09T05:09:30.610Z,17.27
2022-09-09T05:10:32.473Z,17.27
2022-09-09T05:11:32.010Z,17.29
2022-09-09T05:12:32.001Z,17.29
2022-09-09T05:13:31.993Z,17.29
2022-09-09T05:14:30.571Z,17.29
2022-09-09T05:15:31.272Z,17.30
2022-09-09T05:16:30.617Z,17.30
2022-09-09T05:17:31.152Z,17.31
2022-09-09T05:18:31.952Z,17.32
2022-09-09T05:19:31.922Z,17.33
2022-09-09T05:20:31.945Z,17.35
2022-09-09T05:21:30.482Z,17.38
2022-09-09T05:22:30.681Z,17.40
2022-09-09T05:23:31.404Z,17.43
2022-09-09T05:24:30.454Z,17.45
2022-09-09T05:25:30.446Z,17.48
2022-09-09T05:26:31.884Z,17.49
2022-09-09T05:27:30.448Z,17.54
2022-09-09T05:28:31.494Z,17.56
2022-09-09T05:29:31.335Z,17.59
2022-09-09T05:30:30.407Z,17.62
2022-09-09T05:31:31.960Z,17.64
2022-09-09T05:32:31.304Z,17.66
2022-09-09T05:33:31.826Z,17.68
2022-09-09T05:34:30.367Z,17.71
2022-09-09T05:35:30.337Z,17.75
2022-09-09T05:36:30.339Z,17.78
2022-09-09T05:37:30.311Z,17.84
2022-09-09T05:38:31.402Z,17.91
2022-09-09T05:39:30.380Z,17.96
2022-09-09T05:40:31.818Z,17.99
2022-09-09T05:41:30.268Z,18.04
2022-09-09T05:42:31.719Z,18.07
2022-09-09T05:43:31.180Z,18.10
2022-09-09T05:44:31.692Z,18.13
2022-09-09T05:45:30.230Z,18.15
2022-09-09T05:46:30.357Z,18.18
2022-09-09T05:47:30.200Z,18.19
2022-09-09T05:48:31.674Z,18.21
2022-09-09T05:49:31.113Z,18.22
2022-09-09T05:50:31.755Z,18.23
2022-09-09T05:51:30.154Z,18.24
2022-09-09T05:52:31.631Z,18.24
2022-09-09T05:53:31.571Z,18.23
2022-09-09T05:54:31.583Z,18.24
2022-09-09T05:55:31.553Z,18.22
2022-09-09T05:56:30.101Z,18.22
2022-09-09T05:57:31.531Z,18.21
2022-09-09T05:58:30.112Z,18.20
2022-09-09T05:59:31.527Z,18.19
2022-09-09T06:00:31.493Z,18.18
2022-09-09T06:01:31.541Z,18.17
2022-09-09T06:02:30.184Z,18.16
2022-09-09T06:03:30.938Z,18.15
2022-09-09T06:04:31.495Z,18.14
2022-09-09T06:05:30.935Z,18.11
2022-09-09T06:06:31.484Z,18.10
2022-09-09T06:07:31.435Z,18.09
2022-09-09T06:08:29.980Z,18.08
2022-09-09T06:09:31.408Z,18.08
2022-09-09T06:10:31.426Z,18.09
2022-09-09T06:11:29.965Z,18.09
2022-09-09T06:12:31.419Z,18.10
2022-09-09T06:13:31.349Z,18.11
2022-09-09T06:14:31.369Z,18.13
2022-09-09T06:15:31.346Z,18.15
2022-09-09T06:16:30.020Z,18.17
2022-09-09T06:17:31.313Z,18.18
2022-09-09T06:18:31.308Z,18.20
2022-09-09T06:19:31.041Z,18.22
2022-09-09T06:20:30.793Z,18.25
2022-09-09T06:21:30.787Z,18.29
2022-09-09T06:22:29.848Z,18.33
2022-09-09T06:23:31.242Z,18.39
2022-09-09T06:24:31.251Z,18.44
2022-09-09T06:25:29.780Z,18.49
2022-09-09T06:26:31.192Z,18.55
2022-09-09T06:27:29.759Z,18.60
2022-09-09T06:28:31.326Z,18.67
2022-09-09T06:29:29.734Z,18.73
2022-09-09T06:30:29.732Z,18.80
2022-09-09T06:31:31.446Z,18.86
2022-09-09T06:32:31.163Z,18.93
2022-09-09T06:33:31.163Z,19.00
2022-09-09T06:34:29.818Z,19.07
2022-09-09T06:35:31.613Z,19.14
2022-09-09T06:36:30.666Z,19.21
2022-09-09T06:37:31.086Z,19.27
2022-09-09T06:38:29.696Z,19.33
2022-09-09T06:39:29.654Z,19.38
2022-09-09T06:40:31.186Z,19.43
2022-09-09T06:41:29.615Z,19.48
2022-09-09T06:42:31.062Z,19.51
2022-09-09T06:43:29.590Z,19.54
2022-09-09T06:44:34.560Z,19.57
2022-09-09T06:45:30.599Z,19.61
2022-09-09T06:46:29.936Z,19.63
2022-09-09T06:47:30.998Z,19.68
2022-09-09T06:48:30.978Z,19.74
2022-09-09T06:49:30.587Z,19.82
2022-09-09T06:50:30.535Z,19.92
2022-09-09T06:51:31.006Z,20.05
2022-09-09T06:52:29.549Z,20.20
2022-09-09T06:53:31.042Z,20.35
2022-09-09T06:54:29.481Z,20.52
2022-09-09T06:55:30.483Z,20.69
2022-09-09T06:56:30.901Z,20.84
2022-09-09T06:57:38.116Z,21.01
2022-09-09T06:58:31.849Z,21.16
2022-09-09T06:59:29.435Z,21.33
2022-09-09T07:00:29.468Z,21.47
2022-09-09T07:01:30.187Z,21.61
2022-09-09T07:02:29.412Z,21.71
2022-09-09T07:03:31.440Z,21.76
2022-09-09T07:04:29.350Z,21.81
2022-09-09T07:05:30.266Z,21.87
2022-09-09T07:06:30.792Z,21.98
2022-09-09T07:07:29.361Z,21.99
2022-09-09T07:08:29.359Z,21.97
2022-09-09T07:09:29.356Z,22.09
2022-09-09T07:10:29.304Z,22.10
2022-09-09T07:11:30.773Z,22.01
2022-09-09T07:12:30.724Z,21.89
2022-09-09T07:13:30.725Z,21.75
2022-09-09T07:14:30.226Z,21.62
2022-09-09T07:15:30.716Z,21.50
2022-09-09T07:16:30.745Z,21.37
2022-09-09T07:17:29.225Z,21.25
2022-09-09T07:18:30.684Z,21.17
2022-09-09T07:19:30.646Z,21.10
2022-09-09T07:20:30.156Z,21.05
2022-09-09T07:21:30.177Z,21.00
2022-09-09T07:22:30.626Z,20.98
2022-09-09T07:23:34.289Z,20.94
2022-09-09T07:24:31.594Z,20.90
2022-09-09T07:25:30.588Z,20.86
2022-09-09T07:26:29.161Z,20.83
2022-09-09T07:27:30.699Z,20.80
2022-09-09T07:28:30.569Z,20.78
2022-09-09T07:29:30.528Z,20.77
2022-09-09T07:30:30.602Z,20.79
2022-09-09T07:31:29.864Z,20.81
2022-09-09T07:32:30.519Z,20.84
2022-09-09T07:33:29.206Z,20.89
2022-09-09T07:34:29.049Z,20.96
2022-09-09T07:35:30.510Z,21.04
2022-09-09T07:36:33.422Z,21.12
2022-09-09T07:37:29.022Z,21.20
2022-09-09T07:38:30.452Z,21.27
2022-09-09T07:39:30.508Z,21.37
2022-09-09T07:40:30.421Z,21.51
2022-09-09T07:41:30.432Z,21.72
2022-09-09T07:42:29.008Z,21.98
2022-09-09T07:43:30.382Z,22.34
2022-09-09T07:44:30.374Z,22.81
2022-09-09T07:45:28.985Z,23.35
2022-09-09T07:46:30.382Z,23.81
2022-09-09T07:47:29.094Z,24.04
2022-09-09T07:48:30.354Z,24.35
2022-09-09T07:49:32.837Z,24.94
2022-09-09T07:50:29.815Z,25.51
2022-09-09T07:51:28.916Z,26.48
2022-09-09T07:52:28.875Z,26.79
2022-09-09T07:53:28.882Z,26.47
2022-09-09T07:54:29.796Z,26.23
2022-09-09T07:55:30.247Z,26.09
2022-09-09T07:56:30.749Z,26.02
2022-09-09T07:57:28.837Z,25.94
2022-09-09T07:58:30.979Z,25.84
2022-09-09T07:59:29.760Z,25.74
2022-09-09T08:00:28.776Z,25.61
2022-09-09T08:01:29.871Z,25.44
2022-09-09T08:02:28.806Z,25.31
2022-09-09T08:03:30.291Z,25.22
2022-09-09T08:04:30.181Z,25.18
2022-09-09T08:05:30.150Z,25.34
2022-09-09T08:06:29.640Z,26.43
2022-09-09T08:07:30.148Z,27.47
2022-09-09T08:08:30.112Z,28.46
2022-09-09T08:09:28.811Z,29.78
2022-09-09T08:10:29.620Z,30.55
2022-09-09T08:11:30.105Z,30.25
2022-09-09T08:12:29.570Z,30.37
2022-09-09T08:13:30.058Z,31.59
2022-09-09T08:14:28.632Z,31.57
2022-09-09T08:15:28.694Z,31.61
2022-09-09T08:16:29.807Z,32.26
2022-09-09T08:17:29.520Z,32.37
2022-09-09T08:18:29.536Z,32.28
2022-09-09T08:19:30.015Z,31.58
2022-09-09T08:20:28.545Z,31.10
2022-09-09T08:21:28.574Z,30.62
2022-09-09T08:22:29.970Z,30.18
2022-09-09T08:23:28.531Z,30.14
2022-09-09T08:24:28.547Z,30.73
2022-09-09T08:25:29.946Z,31.39
2022-09-09T08:26:29.410Z,30.87
2022-09-09T08:27:28.500Z,30.50
2022-09-09T08:28:28.463Z,30.44
2022-09-09T08:29:28.464Z,30.59
2022-09-09T08:30:29.700Z,30.00
2022-09-09T08:31:29.928Z,29.43
2022-09-09T08:32:29.349Z,28.87
2022-09-09T08:33:29.888Z,28.31
2022-09-09T08:34:29.339Z,27.73
2022-09-09T08:35:28.391Z,27.21
2022-09-09T08:36:28.383Z,26.75
2022-09-09T08:37:29.813Z,26.39
2022-09-09T08:38:29.786Z,26.09
2022-09-09T08:39:29.813Z,25.84
2022-09-09T08:40:28.339Z,25.95
2022-09-09T08:41:29.769Z,25.77
2022-09-09T08:42:29.223Z,25.60
2022-09-09T08:43:28.484Z,25.55
2022-09-09T08:44:29.739Z,25.81
2022-09-09T08:45:29.735Z,26.19
2022-09-09T08:46:29.827Z,26.25
2022-09-09T08:47:33.732Z,26.23
2022-09-09T08:48:28.235Z,26.25
2022-09-09T08:49:29.668Z,26.70
2022-09-09T08:50:29.648Z,27.75
2022-09-09T08:51:29.686Z,27.59
2022-09-09T08:52:29.645Z,27.54
2022-09-09T08:53:29.618Z,27.53
2022-09-09T08:54:48.748Z,27.33
2022-09-09T08:55:30.606Z,27.26
2022-09-09T08:56:29.599Z,27.75
2022-09-09T08:57:29.617Z,27.92
2022-09-09T08:58:28.130Z,27.63
2022-09-09T08:59:29.559Z,27.28
2022-09-09T09:00:29.550Z,26.99
2022-09-09T09:01:29.599Z,26.82
2022-09-09T09:02:30.050Z,26.80
2022-09-09T09:03:29.640Z,26.67
2022-09-09T09:04:28.095Z,26.44
2022-09-09T09:05:28.983Z,26.35
2022-09-09T09:06:28.990Z,26.44
2022-09-09T09:07:32.568Z,26.57
2022-09-09T09:08:29.536Z,26.54
2022-09-09T09:09:28.057Z,26.40
2022-09-09T09:10:41.146Z,26.32
2022-09-09T09:11:30.443Z,26.24
2022-09-09T09:12:29.416Z,26.19
2022-09-09T09:13:29.413Z,26.19
2022-09-09T09:15:32.076Z,26.19
2022-09-09T09:16:29.407Z,26.23
2022-09-09T09:17:29.390Z,26.36
2022-09-09T09:18:29.395Z,26.51
2022-09-09T09:19:29.367Z,26.72
2022-09-09T09:20:27.898Z,26.82
2022-09-09T09:21:27.944Z,26.92
2022-09-09T09:22:29.846Z,26.95
2022-09-09T09:23:29.316Z,26.91
2022-09-09T09:24:29.317Z,26.81
2022-09-09T09:25:29.296Z,26.64
2022-09-09T09:26:27.851Z,26.42
2022-09-09T09:27:29.308Z,26.19
2022-09-09T09:28:29.311Z,26.00
2022-09-09T09:29:29.278Z,25.90
2022-09-09T09:30:30.640Z,25.89
2022-09-09T09:31:28.922Z,25.96
2022-09-09T09:32:28.754Z,26.57
2022-09-09T09:33:29.352Z,27.23
2022-09-09T09:34:29.192Z,27.78
2022-09-09T09:35:29.180Z,28.48
2022-09-09T09:36:27.754Z,29.19
2022-09-09T09:37:28.010Z,29.71
2022-09-09T09:40:30.134Z,29.08
2022-09-09T09:41:29.113Z,28.84
2022-09-09T09:42:29.103Z,28.99
2022-09-09T09:43:29.116Z,29.44
2022-09-09T09:44:28.583Z,29.87
2022-09-09T09:45:27.668Z,30.25
2022-09-09T09:46:29.107Z,30.65
2022-09-09T09:47:27.677Z,30.72
2022-09-09T09:48:27.614Z,30.99
2022-09-09T09:49:28.575Z,31.16
2022-09-09T09:50:29.031Z,31.39
2022-09-09T09:51:27.614Z,31.70
2022-09-09T09:52:29.027Z,32.03
2022-09-09T09:53:27.567Z,32.28
2022-09-09T09:54:27.539Z,32.44
2022-09-09T09:55:28.481Z,32.34
2022-09-09T09:56:28.982Z,32.03
2022-09-09T09:57:29.027Z,31.84
2022-09-09T09:58:27.500Z,31.42
2022-09-09T09:59:39.311Z,30.91
2022-09-09T10:00:28.510Z,30.43
2022-09-09T10:01:28.449Z,30.01
2022-09-09T10:02:28.776Z,29.65
2022-09-09T10:03:28.911Z,29.63
2022-09-09T10:04:28.422Z,29.85
2022-09-09T10:05:31.551Z,30.19
2022-09-09T10:06:29.853Z,30.58
2022-09-09T10:07:28.356Z,31.01
2022-09-09T10:08:28.844Z,31.49
2022-09-09T10:09:28.873Z,31.94
2022-09-09T10:10:28.674Z,32.39
2022-09-09T10:11:28.804Z,32.79
2022-09-09T10:12:28.296Z,33.09
2022-09-09T10:13:27.356Z,33.35
2022-09-09T10:14:28.488Z,33.60
2022-09-09T10:15:27.362Z,33.82
2022-09-09T10:16:28.764Z,34.04
2022-09-09T10:17:28.727Z,34.18
2022-09-09T10:18:28.757Z,33.36
2022-09-09T10:19:28.734Z,32.67
2022-09-09T10:20:28.715Z,32.07
2022-09-09T10:21:32.955Z,32.57
2022-09-09T10:22:29.714Z,33.06
2022-09-09T10:23:28.189Z,32.77
2022-09-09T10:24:27.218Z,32.27
2022-09-09T10:25:28.170Z,32.78
2022-09-09T10:26:28.649Z,33.10
2022-09-09T10:27:27.322Z,33.34
2022-09-09T10:28:28.640Z,33.36
2022-09-09T10:29:28.616Z,33.31
2022-09-09T10:30:27.160Z,33.01
2022-09-09T10:31:28.145Z,32.50
2022-09-09T10:32:28.588Z,31.96
2022-09-09T10:33:28.151Z,31.32
2022-09-09T10:34:31.115Z,30.67
2022-09-09T10:35:27.113Z,30.29
2022-09-09T10:36:29.033Z,30.06
2022-09-09T10:37:28.526Z,29.77
2022-09-09T10:38:28.026Z,29.46
2022-09-09T10:39:28.024Z,29.20
2022-09-09T10:40:28.538Z,29.06
2022-09-09T10:41:28.003Z,28.93
2022-09-09T10:42:28.468Z,28.93
2022-09-09T10:43:28.465Z,28.90
2022-09-09T10:44:27.016Z,28.89
2022-09-09T10:45:27.676Z,28.87
2022-09-09T10:46:27.062Z,28.76
2022-09-09T10:47:28.244Z,28.67
2022-09-09T10:48:26.964Z,28.69
2022-09-09T10:49:28.403Z,28.82
2022-09-09T10:50:57.081Z,28.90
2022-09-09T10:51:29.421Z,28.83
2022-09-09T10:52:28.858Z,28.71
2022-09-09T10:53:26.921Z,28.62
2022-09-09T10:54:27.839Z,28.48
2022-09-09T10:55:30.051Z,28.32
2022-09-09T10:56:28.321Z,28.23
2022-09-09T10:57:28.313Z,28.16
2022-09-09T10:58:26.852Z,28.05
2022-09-09T10:59:26.868Z,27.94
2022-09-09T11:00:28.292Z,27.96
2022-09-09T11:01:27.792Z,27.98
2022-09-09T11:02:27.762Z,27.95
2022-09-09T11:03:26.832Z,27.88
2022-09-09T11:04:26.838Z,27.79
2022-09-09T11:05:26.783Z,27.67
2022-09-09T11:06:28.293Z,27.56
2022-09-09T11:07:28.216Z,27.41
2022-09-09T11:08:28.257Z,27.32
2022-09-09T11:09:28.214Z,27.36
2022-09-09T11:10:28.166Z,27.35
2022-09-09T11:11:26.736Z,27.25
2022-09-09T11:12:28.156Z,27.16
2022-09-09T11:13:28.136Z,27.15
2022-09-09T11:14:27.651Z,27.12
2022-09-09T11:15:28.177Z,27.09
2022-09-09T11:16:28.637Z,27.06
2022-09-09T11:17:26.666Z,26.95
2022-09-09T11:18:28.598Z,26.89
2022-09-09T11:19:28.100Z,26.85
2022-09-09T11:20:28.089Z,26.83
2022-09-09T11:21:28.090Z,26.81
2022-09-09T11:22:28.553Z,26.84
2022-09-09T11:23:28.040Z,26.80
2022-09-09T11:24:27.999Z,26.73
2022-09-09T11:25:27.603Z,26.71
2022-09-09T11:26:27.473Z,26.73
2022-09-09T11:27:27.500Z,26.78
2022-09-09T11:28:28.503Z,26.82
2022-09-09T11:29:27.485Z,26.86
2022-09-09T11:30:51.625Z,26.93
2022-09-09T11:31:29.394Z,27.00
2022-09-09T11:32:27.451Z,27.04
2022-09-09T11:33:26.523Z,27.09
2022-09-09T11:34:27.949Z,27.18
2022-09-09T11:35:27.931Z,27.28
2022-09-09T11:36:28.414Z,27.36
2022-09-09T11:37:26.452Z,27.44
2022-09-09T11:38:27.855Z,27.51
2022-09-09T11:39:27.539Z,27.53
2022-09-09T11:40:27.885Z,27.47
2022-09-09T11:41:27.856Z,27.41
2022-09-09T11:42:27.847Z,27.32
2022-09-09T11:43:27.339Z,27.29
2022-09-09T11:44:27.959Z,27.23
2022-09-09T11:45:26.407Z,27.20
2022-09-09T11:46:27.347Z,27.22
2022-09-09T11:47:27.281Z,27.17
2022-09-09T11:48:27.282Z,27.08
2022-09-09T11:49:27.155Z,26.99
2022-09-09T11:50:28.260Z,26.93
2022-09-09T11:51:27.791Z,26.92
2022-09-09T11:52:28.221Z,26.96
2022-09-09T11:53:27.202Z,27.03
2022-09-09T11:54:27.220Z,27.09
2022-09-09T11:55:27.207Z,27.15
2022-09-09T11:56:28.202Z,27.15
2022-09-09T11:57:27.711Z,27.15
2022-09-09T11:58:26.242Z,27.17
2022-09-09T11:59:26.926Z,27.17
2022-09-09T12:00:27.155Z,27.16
2022-09-09T12:01:27.148Z,27.09
2022-09-09T12:02:28.176Z,27.04
2022-09-09T12:03:27.137Z,26.98
2022-09-09T12:04:27.604Z,27.04
2022-09-09T12:05:27.643Z,27.13
2022-09-09T12:06:27.088Z,27.20
2022-09-09T12:07:27.089Z,27.27
2022-09-09T12:08:27.066Z,27.28
2022-09-09T12:09:27.676Z,27.25
2022-09-09T12:10:27.026Z,27.24
2022-09-09T12:11:27.016Z,27.27
2022-09-09T12:12:27.902Z,27.31
2022-09-09T12:13:27.517Z,27.35
2022-09-09T12:14:26.078Z,27.37
2022-09-09T12:15:26.090Z,27.39
2022-09-09T12:16:26.066Z,27.37
2022-09-09T12:17:27.450Z,27.42
2022-09-09T12:18:26.951Z,27.45
2022-09-09T12:19:27.939Z,27.41
2022-09-09T12:20:26.950Z,27.33
2022-09-09T12:21:27.446Z,27.22
2022-09-09T12:22:26.811Z,27.07
2022-09-09T12:23:27.930Z,26.93
2022-09-09T12:24:26.894Z,26.88
2022-09-09T12:25:25.942Z,26.85
2022-09-09T12:26:28.112Z,26.82
2022-09-09T12:27:26.786Z,26.76
2022-09-09T12:28:25.924Z,26.73
2022-09-09T12:29:26.875Z,26.69
2022-09-09T12:30:25.911Z,26.61
2022-09-09T12:31:26.840Z,26.50
2022-09-09T12:32:26.806Z,26.39
2022-09-09T12:33:26.835Z,26.31
2022-09-09T12:34:26.777Z,26.21
2022-09-09T12:35:26.778Z,26.13
2022-09-09T12:36:26.105Z,26.09
2022-09-09T12:37:26.810Z,26.03
2022-09-09T12:38:26.759Z,26.02
2022-09-09T12:39:26.727Z,25.97
2022-09-09T12:40:26.737Z,25.95
2022-09-09T12:41:27.118Z,25.94
2022-09-09T12:42:26.692Z,25.96
2022-09-09T12:43:26.670Z,26.02
2022-09-09T12:44:27.180Z,26.09
2022-09-09T12:45:27.788Z,26.20
2022-09-09T12:46:26.696Z,26.31
2022-09-09T12:47:30.142Z,26.42
2022-09-09T12:48:27.659Z,26.56
2022-09-09T12:49:25.691Z,26.70
2022-09-09T12:50:26.531Z,26.85
2022-09-09T12:51:26.518Z,26.98
2022-09-09T12:52:26.594Z,27.11
2022-09-09T12:53:26.658Z,27.27
2022-09-09T12:54:25.641Z,27.41
2022-09-09T12:55:25.625Z,27.57